Time;durP1;ratioP1;P1;durP2;ratioP2;P2;SDS_P1;SDS_P2;PMS_P1;PMS_P2;Temp;Humidity;BMP_temperature;BMP_pressure;BME280_temperature;BME280_humidity;BME280_pressure;Samples;Min_cycle;Max_cycle;Signal;HPM_P1;HPM_P2
2022/02/26 00:01:12;;;;;;;6.27;4.07;;;;;;;;;;5030719;28;20198;-80
2022/02/26 00:03:39;;;;;;;5.03;4.33;;;;;;;;;;5030947;28;20299;-79
2022/02/26 00:06:08;;;;;;;4.87;4.40;;;;;;;;;;5030856;28;20219;-78
2022/02/26 00:08:35;;;;;;;4.00;3.70;;;;;;;;;;5030732;28;20199;-78
2022/02/26 00:11:02;;;;;;;4.60;3.83;;;;;;;;;;5030570;28;20199;-79
2022/02/26 00:13:30;;;;;;;4.93;4.07;;;;;;;;;;5030528;28;20195;-79
2022/02/26 00:15:57;;;;;;;5.97;3.53;;;;;;;;;;5030715;28;20205;-77
2022/02/26 00:18:24;;;;;;;4.33;3.97;;;;;;;;;;5030600;28;20210;-78
2022/02/26 00:20:51;;;;;;;5.60;4.23;;;;;;;;;;5030356;28;20202;-78
2022/02/26 00:23:20;;;;;;;6.70;4.50;;;;;;;;;;5031180;28;20583;-78
2022/02/26 00:25:47;;;;;;;5.20;4.47;;;;;;;;;;5028137;28;20218;-78
2022/02/26 00:28:14;;;;;;;5.93;4.53;;;;;;;;;;5028724;28;20202;-78
2022/02/26 00:30:42;;;;;;;4.47;4.03;;;;;;;;;;5030014;28;20744;-78
2022/02/26 00:33:09;;;;;;;5.33;4.23;;;;;;;;;;5030817;28;20587;-79
2022/02/26 00:35:36;;;;;;;5.83;4.73;;;;;;;;;;5030266;28;20612;-79
2022/02/26 00:38:03;;;;;;;5.17;4.03;;;;;;;;;;5030125;28;20199;-78
2022/02/26 00:40:32;;;;;;;6.07;4.23;;;;;;;;;;5030426;28;20199;-78
2022/02/26 00:42:59;;;;;;;4.17;3.77;;;;;;;;;;5029885;28;20199;-78
2022/02/26 00:45:26;;;;;;;5.27;4.00;;;;;;;;;;5030091;28;20209;-79
2022/02/26 00:47:54;;;;;;;5.13;3.63;;;;;;;;;;5030220;28;20549;-78
2022/02/26 00:50:20;;;;;;;4.87;3.70;;;;;;;;;;5029934;28;20205;-78
2022/02/26 00:52:47;;;;;;;4.17;3.60;;;;;;;;;;5029859;28;20234;-78
2022/02/26 00:55:14;;;;;;;4.10;3.70;;;;;;;;;;5041481;28;20202;-79
2022/02/26 00:57:43;;;;;;;4.60;3.60;;;;;;;;;;5030409;28;20582;-78
2022/02/26 01:00:12;;;;;;;4.37;3.80;;;;;;;;;;5029787;28;20202;-78
2022/02/26 01:02:39;;;;;;;5.63;4.60;;;;;;;;;;5029602;28;20198;-78
2022/02/26 01:05:07;;;;;;;6.63;5.03;;;;;;;;;;5029684;28;20214;-78
2022/02/26 01:07:34;;;;;;;6.63;4.27;;;;;;;;;;5029728;28;20219;-78
2022/02/26 01:10:02;;;;;;;4.13;3.73;;;;;;;;;;5029563;28;20209;-78
2022/02/26 01:12:29;;;;;;;4.03;3.40;;;;;;;;;;5029707;28;20217;-78
2022/02/26 01:14:58;;;;;;;5.50;4.80;;;;;;;;;;5029343;28;20294;-79
2022/02/26 01:17:25;;;;;;;4.80;4.40;;;;;;;;;;5030140;28;20234;-79
2022/02/26 01:19:52;;;;;;;5.67;4.20;;;;;;;;;;5029753;28;20194;-78
2022/02/26 01:22:20;;;;;;;4.40;3.77;;;;;;;;;;5029595;28;20198;-78
2022/02/26 01:24:47;;;;;;;4.67;3.73;;;;;;;;;;5029003;28;20209;-78
2022/02/26 01:27:14;;;;;;;4.87;4.00;;;;;;;;;;5029494;28;20222;-78
2022/02/26 01:29:41;;;;;;;4.70;4.17;;;;;;;;;;5029004;28;20241;-78
2022/02/26 01:32:10;;;;;;;5.20;3.50;;;;;;;;;;5029844;28;20651;-78
2022/02/26 01:34:37;;;;;;;3.60;3.30;;;;;;;;;;5028980;28;20203;-78
2022/02/26 01:37:05;;;;;;;4.83;3.47;;;;;;;;;;5028561;28;20217;-78
2022/02/26 01:39:33;;;;;;;4.23;3.33;;;;;;;;;;5029253;28;20202;-78
2022/02/26 01:42:00;;;;;;;6.73;3.93;;;;;;;;;;5029376;28;20675;-78
2022/02/26 01:44:27;;;;;;;3.63;3.33;;;;;;;;;;5029273;28;20195;-78
2022/02/26 01:46:54;;;;;;;4.00;3.60;;;;;;;;;;5029021;28;20706;-78
2022/02/26 01:49:23;;;;;;;3.90;3.60;;;;;;;;;;5029200;28;20199;-77
2022/02/26 01:51:51;;;;;;;4.87;4.40;;;;;;;;;;5029298;28;20580;-77
2022/02/26 01:54:19;;;;;;;4.57;3.70;;;;;;;;;;5032061;28;20206;-76
2022/02/26 01:56:47;;;;;;;4.27;3.87;;;;;;;;;;5049036;28;20198;-77
2022/02/26 01:59:14;;;;;;;3.80;3.40;;;;;;;;;;5045849;28;20212;-77
2022/02/26 02:01:41;;;;;;;4.90;3.70;;;;;;;;;;5029437;28;20562;-78
2022/02/26 02:04:09;;;;;;;7.37;4.00;;;;;;;;;;5028931;28;20203;-77
2022/02/26 02:06:37;;;;;;;5.23;3.57;;;;;;;;;;5029409;28;20301;-77
2022/02/26 02:09:05;;;;;;;4.97;3.97;;;;;;;;;;5028633;28;20202;-77
2022/02/26 02:11:33;;;;;;;6.23;4.60;;;;;;;;;;5028959;28;20667;-77
2022/02/26 02:14:00;;;;;;;4.73;4.10;;;;;;;;;;5028670;28;20238;-77
2022/02/26 02:16:28;;;;;;;5.73;4.20;;;;;;;;;;5028583;28;20195;-77
2022/02/26 02:18:55;;;;;;;6.47;4.47;;;;;;;;;;5028897;28;20289;-77
2022/02/26 02:21:22;;;;;;;5.57;4.10;;;;;;;;;;5028732;28;20202;-77
2022/02/26 02:23:51;;;;;;;4.23;3.73;;;;;;;;;;5028759;28;20649;-78
2022/02/26 02:26:18;;;;;;;4.77;4.27;;;;;;;;;;5028705;28;20240;-78
2022/02/26 02:28:46;;;;;;;5.33;4.07;;;;;;;;;;5028666;28;20243;-78
2022/02/26 02:31:13;;;;;;;4.87;4.40;;;;;;;;;;5028583;28;20270;-78
2022/02/26 02:33:41;;;;;;;5.53;3.80;;;;;;;;;;5028848;28;20209;-78
2022/02/26 02:36:08;;;;;;;4.83;4.30;;;;;;;;;;5028098;28;20202;-78
2022/02/26 02:38:35;;;;;;;4.50;4.10;;;;;;;;;;5028670;28;20199;-78
2022/02/26 02:41:04;;;;;;;5.70;5.10;;;;;;;;;;5028474;28;20210;-78
2022/02/26 02:43:31;;;;;;;5.83;4.57;;;;;;;;;;5028259;28;20206;-78
2022/02/26 02:45:59;;;;;;;5.63;5.03;;;;;;;;;;5027759;28;20198;-78
2022/02/26 02:48:26;;;;;;;4.90;4.47;;;;;;;;;;5030743;28;20203;-78
2022/02/26 02:50:54;;;;;;;5.27;4.43;;;;;;;;;;5031545;28;20212;-78
2022/02/26 02:53:21;;;;;;;6.30;4.63;;;;;;;;;;5033153;28;20202;-78
2022/02/26 02:55:48;;;;;;;5.83;5.23;;;;;;;;;;5040900;28;20221;-78
2022/02/26 02:58:22;;;;;;;9.03;4.00;;;;;;;;;;5031498;28;20202;-78
2022/02/26 03:00:49;;;;;;;5.57;4.97;;;;;;;;;;5031542;28;20282;-78
2022/02/26 03:03:16;;;;;;;4.40;3.97;;;;;;;;;;5031502;28;20563;-78
2022/02/26 03:05:43;;;;;;;5.07;4.30;;;;;;;;;;5031152;28;20593;-78
2022/02/26 03:08:11;;;;;;;5.17;3.87;;;;;;;;;;5031347;28;20222;-78
2022/02/26 03:10:38;;;;;;;4.60;3.97;;;;;;;;;;5031237;28;20195;-78
2022/02/26 03:13:05;;;;;;;4.53;4.10;;;;;;;;;;5031370;28;20207;-77
2022/02/26 03:15:34;;;;;;;5.00;3.87;;;;;;;;;;5031217;28;20203;-77
2022/02/26 03:18:01;;;;;;;6.30;4.10;;;;;;;;;;5031227;28;20208;-77
2022/02/26 03:20:29;;;;;;;6.57;4.70;;;;;;;;;;5031056;28;20209;-75
2022/02/26 03:22:56;;;;;;;5.30;3.63;;;;;;;;;;5031101;28;20198;-76
2022/02/26 03:25:23;;;;;;;5.63;4.77;;;;;;;;;;5031051;28;20195;-76
2022/02/26 03:27:52;;;;;;;6.40;3.80;;;;;;;;;;5030997;28;20275;-75
2022/02/26 03:30:19;;;;;;;4.23;3.73;;;;;;;;;;5030818;28;20741;-76
2022/02/26 03:32:48;;;;;;;3.90;3.50;;;;;;;;;;5031054;28;20245;-76
2022/02/26 03:35:15;;;;;;;4.30;3.90;;;;;;;;;;5030559;28;20199;-76
2022/02/26 03:37:43;;;;;;;5.20;4.00;;;;;;;;;;5031246;28;20191;-76
2022/02/26 03:40:12;;;;;;;5.83;3.70;;;;;;;;;;5039367;28;20206;-76
2022/02/26 03:42:39;;;;;;;4.43;3.70;;;;;;;;;;5041966;28;20217;-75
2022/02/26 03:45:08;;;;;;;5.10;4.17;;;;;;;;;;5030759;28;20201;-76
2022/02/26 03:47:36;;;;;;;4.77;3.47;;;;;;;;;;5030704;28;20262;-76
2022/02/26 03:50:06;;;;;;;3.40;3.10;;;;;;;;;;5030701;28;20689;-76
2022/02/26 03:52:33;;;;;;;4.37;3.77;;;;;;;;;;5031384;28;20664;-76
2022/02/26 03:55:02;;;;;;;4.13;3.60;;;;;;;;;;5040712;28;20214;-75
2022/02/26 03:57:30;;;;;;;4.00;3.67;;;;;;;;;;5030766;28;20221;-76
2022/02/26 03:59:57;;;;;;;5.83;3.50;;;;;;;;;;5029456;28;20198;-76
2022/02/26 04:02:24;;;;;;;5.53;4.40;;;;;;;;;;5030652;28;20210;-75
2022/02/26 04:04:51;;;;;;;4.40;4.00;;;;;;;;;;5030175;28;20671;-76
2022/02/26 04:07:20;;;;;;;5.37;4.17;;;;;;;;;;5030530;28;20229;-75
2022/02/26 04:09:47;;;;;;;4.80;4.27;;;;;;;;;;5030261;28;20283;-76
2022/02/26 04:12:16;;;;;;;8.60;5.13;;;;;;;;;;5030501;28;20194;-77
2022/02/26 04:14:43;;;;;;;4.93;4.17;;;;;;;;;;5029999;28;20672;-77
2022/02/26 04:17:10;;;;;;;4.40;3.57;;;;;;;;;;5030382;28;20195;-77
2022/02/26 04:19:38;;;;;;;5.67;3.80;;;;;;;;;;5028926;28;20203;-76
2022/02/26 04:22:05;;;;;;;3.37;2.87;;;;;;;;;;5030121;28;20199;-76
2022/02/26 04:24:34;;;;;;;4.00;3.33;;;;;;;;;;5029242;28;20667;-76
2022/02/26 04:27:01;;;;;;;4.57;3.90;;;;;;;;;;5029676;28;20233;-76
2022/02/26 04:29:28;;;;;;;3.27;3.03;;;;;;;;;;5029680;28;20235;-76
2022/02/26 04:31:56;;;;;;;4.60;2.90;;;;;;;;;;5030011;28;20614;-77
2022/02/26 04:34:23;;;;;;;3.80;3.50;;;;;;;;;;5030030;28;20198;-77
2022/02/26 04:36:50;;;;;;;3.30;3.00;;;;;;;;;;5030195;28;20624;-76
2022/02/26 04:39:17;;;;;;;3.97;3.43;;;;;;;;;;5030002;28;20195;-76
2022/02/26 04:41:46;;;;;;;4.17;3.47;;;;;;;;;;5029974;28;20689;-78
2022/02/26 04:44:13;;;;;;;3.67;3.30;;;;;;;;;;5029688;28;20626;-77
2022/02/26 04:46:40;;;;;;;4.07;3.50;;;;;;;;;;5030103;28;20578;-76
2022/02/26 04:49:07;;;;;;;6.00;4.53;;;;;;;;;;5029599;28;20203;-77
2022/02/26 04:51:35;;;;;;;6.20;5.60;;;;;;;;;;5030015;28;20641;-77
2022/02/26 04:54:02;;;;;;;5.13;4.13;;;;;;;;;;5031731;28;20199;-76
2022/02/26 04:56:29;;;;;;;7.13;5.67;;;;;;;;;;5029590;28;20679;-76
2022/02/26 04:58:58;;;;;;;6.43;5.63;;;;;;;;;;5029369;28;20724;-76
2022/02/26 05:01:25;;;;;;;49.57;34.87;;;;;;;;;;5029569;28;20207;-78
2022/02/26 05:03:52;;;;;;;33.40;22.93;;;;;;;;;;5029423;28;20282;-77
2022/02/26 05:06:19;;;;;;;33.50;22.37;;;;;;;;;;5029445;28;20387;-77
2022/02/26 05:08:46;;;;;;;40.47;23.90;;;;;;;;;;5029340;28;20219;-77
2022/02/26 05:11:14;;;;;;;116.13;60.47;;;;;;;;;;5029196;28;20225;-77
2022/02/26 05:13:41;;;;;;;93.93;45.60;;;;;;;;;;5029383;28;20195;-78
2022/02/26 05:16:09;;;;;;;99.17;53.43;;;;;;;;;;5029144;28;20202;-76
2022/02/26 05:18:37;;;;;;;59.40;36.40;;;;;;;;;;5029344;28;20659;-76
2022/02/26 05:21:04;;;;;;;45.90;27.33;;;;;;;;;;5029038;28;20203;-76
2022/02/26 05:23:31;;;;;;;42.80;25.67;;;;;;;;;;5029034;28;20206;-76
2022/02/26 05:25:58;;;;;;;50.00;28.07;;;;;;;;;;5029634;28;20198;-76
2022/02/26 05:28:25;;;;;;;33.83;22.23;;;;;;;;;;5043798;28;20222;-76
2022/02/26 05:30:53;;;;;;;40.37;26.93;;;;;;;;;;5028832;28;20238;-76
2022/02/26 05:33:21;;;;;;;57.23;38.53;;;;;;;;;;5031008;28;20265;-76
2022/02/26 05:35:48;;;;;;;57.87;36.07;;;;;;;;;;5036219;28;20212;-76
2022/02/26 05:38:16;;;;;;;28.73;19.70;;;;;;;;;;5030166;28;20206;-76
2022/02/26 05:40:43;;;;;;;21.47;15.23;;;;;;;;;;5038712;28;20219;-76
2022/02/26 05:43:10;;;;;;;16.33;12.57;;;;;;;;;;5031661;28;20679;-76
2022/02/26 05:45:37;;;;;;;18.80;13.53;;;;;;;;;;5028571;28;20229;-76
2022/02/26 05:48:05;;;;;;;15.50;11.47;;;;;;;;;;5028788;28;20222;-76
2022/02/26 05:50:34;;;;;;;14.40;9.80;;;;;;;;;;5028790;28;20206;-76
2022/02/26 05:53:01;;;;;;;24.43;15.33;;;;;;;;;;5028856;28;20209;-76
2022/02/26 05:55:28;;;;;;;21.47;15.47;;;;;;;;;;5029061;28;20282;-76
2022/02/26 05:57:55;;;;;;;22.80;16.63;;;;;;;;;;5028671;28;20285;-76
2022/02/26 06:00:23;;;;;;;23.77;16.97;;;;;;;;;;5028699;28;20205;-77
2022/02/26 06:02:50;;;;;;;22.03;14.13;;;;;;;;;;5029209;28;20199;-77
2022/02/26 06:05:17;;;;;;;14.07;10.87;;;;;;;;;;5028712;28;20209;-77
2022/02/26 06:07:46;;;;;;;15.67;13.23;;;;;;;;;;5028623;28;20313;-77
2022/02/26 06:10:13;;;;;;;33.03;21.23;;;;;;;;;;5028658;28;20705;-77
2022/02/26 06:12:40;;;;;;;22.40;16.53;;;;;;;;;;5028777;28;20701;-77
2022/02/26 06:15:08;;;;;;;12.70;9.63;;;;;;;;;;5028613;28;20213;-78
2022/02/26 06:17:36;;;;;;;13.67;9.90;;;;;;;;;;5028460;28;20234;-77
2022/02/26 06:20:04;;;;;;;9.13;5.93;;;;;;;;;;5028784;28;20298;-77
2022/02/26 06:22:31;;;;;;;7.37;5.33;;;;;;;;;;5029495;28;20194;-77
2022/02/26 06:25:00;;;;;;;5.90;5.00;;;;;;;;;;5032226;28;20282;-77
2022/02/26 06:27:27;;;;;;;8.50;5.20;;;;;;;;;;5031781;28;20226;-77
2022/02/26 06:29:55;;;;;;;8.27;5.20;;;;;;;;;;5031792;28;20230;-77
2022/02/26 06:32:22;;;;;;;4.73;4.17;;;;;;;;;;5032053;28;20203;-77
2022/02/26 06:34:49;;;;;;;3.57;3.30;;;;;;;;;;5031957;28;20202;-78
2022/02/26 06:37:16;;;;;;;6.00;4.43;;;;;;;;;;5032182;28;20275;-78
2022/02/26 06:39:44;;;;;;;6.23;3.63;;;;;;;;;;5031835;28;20203;-79
2022/02/26 06:42:12;;;;;;;5.13;4.13;;;;;;;;;;5037372;28;20225;-78
2022/02/26 06:44:39;;;;;;;5.30;4.20;;;;;;;;;;5051455;28;20202;-78
2022/02/26 06:47:07;;;;;;;5.00;4.50;;;;;;;;;;5051280;28;20198;-78
2022/02/26 06:49:35;;;;;;;7.33;5.03;;;;;;;;;;5051305;28;20226;-78
2022/02/26 06:52:02;;;;;;;5.33;4.13;;;;;;;;;;5051380;28;20251;-78
2022/02/26 06:54:29;;;;;;;5.53;4.90;;;;;;;;;;5051326;28;20202;-78
2022/02/26 06:56:56;;;;;;;3.33;3.03;;;;;;;;;;5051437;28;20217;-78
2022/02/26 06:59:25;;;;;;;4.53;4.13;;;;;;;;;;5051085;28;20198;-79
2022/02/26 07:01:52;;;;;;;6.70;4.70;;;;;;;;;;5051234;28;20662;-78
2022/02/26 07:04:20;;;;;;;4.83;4.33;;;;;;;;;;5050937;28;20193;-78
2022/02/26 07:06:47;;;;;;;6.27;4.93;;;;;;;;;;5046512;28;20289;-79
2022/02/26 07:09:17;;;;;;;4.67;3.63;;;;;;;;;;5051069;28;20257;-78
2022/02/26 07:11:44;;;;;;;3.17;2.87;;;;;;;;;;5034347;28;20206;-79
2022/02/26 07:14:12;;;;;;;4.50;3.17;;;;;;;;;;5031018;28;20298;-79
2022/02/26 07:16:41;;;;;;;3.47;3.17;;;;;;;;;;5044696;28;20676;-79
2022/02/26 07:19:08;;;;;;;3.90;3.53;;;;;;;;;;5050760;28;20198;-79
2022/02/26 07:21:36;;;;;;;3.43;3.13;;;;;;;;;;5050824;28;20238;-79
2022/02/26 07:24:05;;;;;;;3.40;3.10;;;;;;;;;;5050895;28;20675;-79
2022/02/26 07:26:32;;;;;;;7.70;5.40;;;;;;;;;;5050619;28;20248;-79
2022/02/26 07:28:59;;;;;;;5.80;4.27;;;;;;;;;;5050285;28;20230;-79
2022/02/26 07:31:27;;;;;;;4.50;4.10;;;;;;;;;;5049725;28;20564;-79
2022/02/26 07:33:56;;;;;;;3.53;2.80;;;;;;;;;;5049626;28;20229;-79
2022/02/26 07:36:24;;;;;;;3.40;3.03;;;;;;;;;;5039264;28;20207;-80
2022/02/26 07:38:51;;;;;;;3.77;2.30;;;;;;;;;;5030783;28;20202;-80
2022/02/26 07:41:18;;;;;;;3.60;2.70;;;;;;;;;;5031172;28;20222;-80
2022/02/26 07:43:45;;;;;;;2.57;2.13;;;;;;;;;;5030925;28;20238;-80
2022/02/26 07:46:13;;;;;;;2.63;2.40;;;;;;;;;;5030769;28;20209;-79
2022/02/26 07:48:40;;;;;;;6.23;2.30;;;;;;;;;;5031183;28;20226;-79
2022/02/26 07:51:09;;;;;;;2.67;2.47;;;;;;;;;;5030602;28;20248;-79
2022/02/26 07:53:36;;;;;;;4.10;3.70;;;;;;;;;;5031144;28;20203;-79
2022/02/26 07:56:04;;;;;;;3.87;2.93;;;;;;;;;;5030625;28;20199;-79
2022/02/26 07:58:32;;;;;;;3.03;2.50;;;;;;;;;;5030722;28;20317;-79
2022/02/26 08:00:59;;;;;;;3.77;2.67;;;;;;;;;;5030520;28;20281;-79
2022/02/26 08:03:27;;;;;;;9.43;3.33;;;;;;;;;;5032082;28;20195;-78
2022/02/26 08:05:54;;;;;;;2.60;2.40;;;;;;;;;;5050417;28;20224;-79
2022/02/26 08:08:23;;;;;;;2.50;2.30;;;;;;;;;;5050411;28;20290;-79
2022/02/26 08:10:50;;;;;;;3.10;2.60;;;;;;;;;;5050558;28;20291;-79
2022/02/26 08:13:18;;;;;;;5.37;3.33;;;;;;;;;;5050603;28;20265;-79
2022/02/26 08:15:45;;;;;;;2.47;1.90;;;;;;;;;;5050066;28;20230;-79
2022/02/26 08:18:15;;;;;;;4.53;3.73;;;;;;;;;;5050612;28;20206;-80
2022/02/26 08:20:42;;;;;;;4.87;4.17;;;;;;;;;;5050161;28;20334;-79
2022/02/26 08:23:09;;;;;;;12.27;8.57;;;;;;;;;;5050116;28;20284;-80
2022/02/26 08:25:38;;;;;;;6.73;4.90;;;;;;;;;;5049780;28;20194;-80
2022/02/26 08:28:06;;;;;;;4.80;4.33;;;;;;;;;;5050007;28;20236;-80
2022/02/26 08:30:33;;;;;;;6.10;5.50;;;;;;;;;;5049815;28;20230;-80
2022/02/26 08:33:00;;;;;;;6.17;5.57;;;;;;;;;;5050002;28;20288;-80
2022/02/26 08:35:28;;;;;;;6.10;5.50;;;;;;;;;;5049692;28;20205;-79
2022/02/26 08:37:55;;;;;;;10.30;6.87;;;;;;;;;;5049969;28;20289;-79
2022/02/26 08:40:23;;;;;;;25.60;17.23;;;;;;;;;;5049855;28;20297;-80
2022/02/26 08:42:51;;;;;;;4.60;2.73;;;;;;;;;;5050033;28;20686;-80
2022/02/26 08:45:19;;;;;;;3.43;3.03;;;;;;;;;;5049362;28;20583;-80
2022/02/26 08:47:46;;;;;;;3.30;3.00;;;;;;;;;;5049860;28;20198;-81
2022/02/26 08:50:17;;;;;;;2.80;2.27;;;;;;;;;;5049561;28;20253;-81
2022/02/26 08:52:44;;;;;;;17.33;13.23;;;;;;;;;;5038778;28;20244;-81
2022/02/26 08:55:11;;;;;;;5.40;4.03;;;;;;;;;;5029489;28;20199;-82
2022/02/26 08:57:39;;;;;;;4.63;3.53;;;;;;;;;;5031097;28;20285;-82
2022/02/26 09:00:10;;;;;;;7.30;4.77;;;;;;;;;;5030393;28;20198;-81
2022/02/26 09:02:38;;;;;;;18.93;10.80;;;;;;;;;;5029990;28;20659;-82
2022/02/26 09:05:06;;;;;;;7.83;5.73;;;;;;;;;;5029372;28;20256;-82
2022/02/26 09:07:33;;;;;;;10.43;7.93;;;;;;;;;;5029820;28;20241;-82
2022/02/26 09:10:00;;;;;;;12.77;11.47;;;;;;;;;;5029265;28;20584;-81
2022/02/26 09:12:28;;;;;;;10.70;9.80;;;;;;;;;;5029981;28;20209;-81
2022/02/26 09:14:55;;;;;;;4.10;3.80;;;;;;;;;;5029157;28;20560;-81
2022/02/26 09:17:25;;;;;;;6.13;3.87;;;;;;;;;;5029601;28;20202;-82
2022/02/26 09:19:52;;;;;;;5.10;3.97;;;;;;;;;;5029239;28;20212;-81
2022/02/26 09:22:19;;;;;;;3.80;3.40;;;;;;;;;;5029277;28;20290;-81
2022/02/26 09:24:47;;;;;;;9.73;7.77;;;;;;;;;;5029113;28;20659;-81
2022/02/26 09:27:14;;;;;;;17.37;11.67;;;;;;;;;;5029061;28;20199;-82
2022/02/26 09:29:42;;;;;;;15.33;9.17;;;;;;;;;;5028823;28;20233;-82
2022/02/26 09:32:09;;;;;;;24.43;17.50;;;;;;;;;;5028887;28;20259;-82
2022/02/26 09:34:38;;;;;;;12.37;11.10;;;;;;;;;;5029087;28;20234;-82
2022/02/26 09:37:07;;;;;;;7.27;6.57;;;;;;;;;;5029842;28;20564;-82
2022/02/26 09:39:34;;;;;;;9.23;7.60;;;;;;;;;;5028799;28;20282;-82
2022/02/26 09:42:02;;;;;;;14.80;7.73;;;;;;;;;;5029234;28;20237;-82
2022/02/26 09:44:30;;;;;;;9.43;7.30;;;;;;;;;;5029030;28;20191;-82
2022/02/26 09:46:58;;;;;;;11.10;9.23;;;;;;;;;;5029426;28;20580;-82
2022/02/26 09:49:26;;;;;;;6.60;5.50;;;;;;;;;;5028975;28;20299;-82
2022/02/26 09:51:54;;;;;;;8.27;6.70;;;;;;;;;;5028717;28;20198;-82
2022/02/26 09:54:22;;;;;;;5.43;4.80;;;;;;;;;;5028810;28;20290;-82
2022/02/26 09:56:49;;;;;;;6.20;5.00;;;;;;;;;;5028142;28;20206;-82
2022/02/26 09:59:16;;;;;;;4.30;3.57;;;;;;;;;;5029031;28;20871;-81
2022/02/26 10:01:59;;;;;;;5.00;4.50;;;;;;;;;;5028647;28;20736;-82
2022/02/26 10:04:27;;;;;;;4.47;4.07;;;;;;;;;;5026504;28;20206;-82
2022/02/26 10:07:17;;;;;;;5.70;5.10;;;;;;;;;;5028817;28;20251;-82
2022/02/26 10:09:46;;;;;;;4.33;3.97;;;;;;;;;;5028347;28;20226;-81
2022/02/26 10:12:22;;;;;;;8.57;4.47;;;;;;;;;;5028883;28;20207;-82
2022/02/26 10:14:50;;;;;;;10.97;8.43;;;;;;;;;;5028843;28;20282;-81
2022/02/26 10:17:31;;;;;;;5.20;4.73;;;;;;;;;;5028647;28;20590;-82
2022/02/26 10:20:12;;;;;;;6.97;5.77;;;;;;;;;;5028359;28;20226;-82
2022/02/26 10:22:44;;;;;;;6.50;5.90;;;;;;;;;;5028769;28;20186;-82
2022/02/26 10:25:13;;;;;;;6.17;3.30;;;;;;;;;;5028553;28;20372;-82
2022/02/26 10:27:42;;;;;;;5.17;4.23;;;;;;;;;;5028656;28;20294;-82
2022/02/26 10:30:11;;;;;;;6.17;4.70;;;;;;;;;;5028078;28;20317;-83
2022/02/26 10:32:38;;;;;;;4.40;4.00;;;;;;;;;;5028581;28;20199;-82
2022/02/26 10:35:06;;;;;;;6.33;3.90;;;;;;;;;;5028337;28;20211;-82
2022/02/26 10:37:33;;;;;;;4.57;3.90;;;;;;;;;;5028629;28;20697;-82
2022/02/26 10:40:02;;;;;;;6.20;4.07;;;;;;;;;;5028376;28;20226;-82
2022/02/26 10:42:30;;;;;;;3.50;3.20;;;;;;;;;;5028482;28;20677;-82
2022/02/26 10:45:04;;;;;;;4.07;3.67;;;;;;;;;;5028253;28;20202;-82
2022/02/26 10:47:33;;;;;;;4.57;3.40;;;;;;;;;;5028099;28;20248;-82
2022/02/26 10:50:01;;;;;;;4.40;3.83;;;;;;;;;;5028138;28;20710;-82
2022/02/26 10:52:32;;;;;;;5.27;4.37;;;;;;;;;;5028258;28;20208;-82
2022/02/26 10:55:06;;;;;;;4.07;3.60;;;;;;;;;;5028157;28;20202;-82
2022/02/26 10:57:34;;;;;;;4.37;3.60;;;;;;;;;;5028269;28;20191;-82
2022/02/26 11:00:01;;;;;;;4.57;4.03;;;;;;;;;;5028091;28;20221;-82
2022/02/26 11:02:29;;;;;;;10.57;8.10;;;;;;;;;;5028517;28;20263;-82
2022/02/26 11:04:58;;;;;;;17.83;14.20;;;;;;;;;;5027963;28;20289;-82
2022/02/26 11:07:26;;;;;;;6.47;5.83;;;;;;;;;;5027889;28;20289;-82
2022/02/26 11:09:54;;;;;;;5.83;3.80;;;;;;;;;;5030846;28;20692;-82
2022/02/26 11:12:27;;;;;;;4.70;4.03;;;;;;;;;;5031468;28;20205;-82
2022/02/26 11:14:59;;;;;;;5.63;4.23;;;;;;;;;;5031170;28;20187;-83
2022/02/26 11:17:27;;;;;;;6.00;4.87;;;;;;;;;;5031416;28;20202;-82
2022/02/26 11:19:57;;;;;;;5.67;5.07;;;;;;;;;;5039458;28;20202;-83
2022/02/26 11:22:25;;;;;;;7.27;6.57;;;;;;;;;;5038121;28;20216;-82
2022/02/26 11:24:53;;;;;;;10.03;9.03;;;;;;;;;;5051031;28;20227;-82
2022/02/26 11:27:23;;;;;;;9.37;8.43;;;;;;;;;;5050772;28;20198;-82
2022/02/26 11:29:51;;;;;;;7.43;6.03;;;;;;;;;;5050899;28;20225;-82
2022/02/26 11:32:20;;;;;;;6.53;4.43;;;;;;;;;;5051052;28;20241;-82
2022/02/26 11:34:48;;;;;;;9.07;8.17;;;;;;;;;;5050811;28;20206;-82
2022/02/26 11:37:17;;;;;;;8.90;8.00;;;;;;;;;;5050983;28;20207;-82
2022/02/26 11:39:46;;;;;;;7.73;5.87;;;;;;;;;;5046385;28;20663;-82
2022/02/26 11:42:41;;;;;;;7.50;6.70;;;;;;;;;;5030923;28;20684;-82
2022/02/26 11:45:10;;;;;;;11.17;9.20;;;;;;;;;;5044162;28;20233;-81
2022/02/26 11:47:41;;;;;;;5.50;4.50;;;;;;;;;;5039928;28;20210;-82
2022/02/26 11:50:11;;;;;;;8.13;6.40;;;;;;;;;;5030605;28;20211;-81
2022/02/26 11:52:40;;;;;;;6.20;5.60;;;;;;;;;;5041361;28;20296;-82
2022/02/26 11:55:30;;;;;;;10.67;9.53;;;;;;;;;;5050468;28;20209;-82
2022/02/26 11:58:00;;;;;;;7.40;6.60;;;;;;;;;;5050539;28;20643;-81
2022/02/26 12:00:31;;;;;;;4.30;3.90;;;;;;;;;;5050467;28;20183;-82
2022/02/26 12:03:25;;;;;;;7.70;6.70;;;;;;;;;;5050611;28;20191;-83
2022/02/26 12:05:53;;;;;;;7.00;5.57;;;;;;;;;;5038689;28;20195;-82
2022/02/26 12:08:22;;;;;;;7.27;6.07;;;;;;;;;;5030457;28;20671;-82
2022/02/26 12:10:56;;;;;;;9.30;4.73;;;;;;;;;;5030353;28;20225;-82
2022/02/26 12:13:26;;;;;;;6.63;5.10;;;;;;;;;;5030871;28;20670;-82
2022/02/26 12:16:26;;;;;;;6.07;5.33;;;;;;;;;;5030600;28;20195;-82
2022/02/26 12:18:58;;;;;;;7.33;5.50;;;;;;;;;;5024502;28;20290;-82
2022/02/26 12:21:30;;;;;;;7.20;5.43;;;;;;;;;;5029489;28;20203;-82
2022/02/26 12:24:08;;;;;;;9.90;5.93;;;;;;;;;;5030370;28;20607;-82
2022/02/26 12:27:05;;;;;;;7.53;6.53;;;;;;;;;;5030203;28;20194;-82
2022/02/26 12:29:52;;;;;;;6.83;5.97;;;;;;;;;;4984701;28;20332;-82
2022/02/26 12:32:20;;;;;;;5.43;4.93;;;;;;;;;;5030292;28;20227;-82
2022/02/26 12:34:59;;;;;;;5.47;4.97;;;;;;;;;;5029738;28;20253;-82
2022/02/26 12:37:27;;;;;;;7.87;6.80;;;;;;;;;;5030457;28;20570;-82
2022/02/26 12:39:58;;;;;;;6.50;5.90;;;;;;;;;;5030202;28;20209;-82
2022/02/26 12:42:27;;;;;;;7.67;6.90;;;;;;;;;;5030134;28;20277;-82
2022/02/26 12:44:57;;;;;;;38.13;19.63;;;;;;;;;;5029550;28;20210;-82
2022/02/26 12:47:26;;;;;;;37.13;19.70;;;;;;;;;;5030684;28;20628;-82
2022/02/26 12:49:53;;;;;;;6.50;5.27;;;;;;;;;;5033453;28;20234;-82
2022/02/26 12:52:20;;;;;;;27.80;20.37;;;;;;;;;;5037201;28;20216;-82
2022/02/26 12:54:48;;;;;;;37.30;22.30;;;;;;;;;;5049347;28;20282;-82
2022/02/26 12:57:15;;;;;;;46.30;28.17;;;;;;;;;;5029879;28;20207;-82
2022/02/26 12:59:43;;;;;;;64.83;36.27;;;;;;;;;;5033346;28;20293;-82
2022/02/26 13:02:12;;;;;;;31.60;17.63;;;;;;;;;;5049750;28;20297;-82
2022/02/26 13:04:41;;;;;;;68.30;35.43;;;;;;;;;;5049514;28;20198;-82
2022/02/26 13:07:09;;;;;;;12.73;9.27;;;;;;;;;;5049379;28;20610;-82
2022/02/26 13:09:51;;;;;;;40.77;20.80;;;;;;;;;;5049396;28;20313;-83
2022/02/26 13:12:19;;;;;;;31.47;18.37;;;;;;;;;;5049889;28;20186;-82
2022/02/26 13:14:57;;;;;;;27.60;14.77;;;;;;;;;;5049647;28;20227;-83
2022/02/26 13:17:27;;;;;;;38.17;24.07;;;;;;;;;;5049298;28;20194;-83
2022/02/26 13:19:55;;;;;;;11.53;7.67;;;;;;;;;;5043696;28;20245;-82
2022/02/26 13:22:22;;;;;;;5.70;5.07;;;;;;;;;;5029539;28;20291;-83
2022/02/26 13:24:50;;;;;;;13.00;8.77;;;;;;;;;;5029243;28;20199;-83
2022/02/26 13:27:19;;;;;;;7.80;5.43;;;;;;;;;;5029536;28;20224;-83
2022/02/26 13:29:49;;;;;;;19.97;11.80;;;;;;;;;;5028970;28;20237;-82
2022/02/26 13:32:18;;;;;;;34.07;19.70;;;;;;;;;;5029377;28;20243;-82
2022/02/26 13:34:54;;;;;;;18.37;12.53;;;;;;;;;;5029194;28;20663;-83
2022/02/26 13:37:25;;;;;;;27.50;14.73;;;;;;;;;;5029200;28;20190;-83
2022/02/26 13:39:52;;;;;;;31.80;16.87;;;;;;;;;;5029464;28;20276;-82
2022/02/26 13:42:22;;;;;;;27.87;14.70;;;;;;;;;;5029570;28;20239;-82
2022/02/26 13:44:55;;;;;;;38.30;21.97;;;;;;;;;;5042438;28;20205;-82
2022/02/26 13:47:22;;;;;;;30.93;20.00;;;;;;;;;;5049362;28;20556;-82
2022/02/26 13:49:54;;;;;;;18.97;14.03;;;;;;;;;;5048737;28;20218;-83
2022/02/26 13:52:22;;;;;;;42.37;24.40;;;;;;;;;;5049067;28;20190;-83
2022/02/26 13:54:51;;;;;;;25.00;14.03;;;;;;;;;;5048656;28;20755;-82
2022/02/26 13:57:19;;;;;;;29.67;16.40;;;;;;;;;;5049182;28;20193;-82
2022/02/26 13:59:48;;;;;;;10.70;8.10;;;;;;;;;;5048704;28;20661;-83
2022/02/26 14:02:23;;;;;;;105.73;47.27;;;;;;;;;;5046881;28;20201;-82
2022/02/26 14:04:57;;;;;;;53.87;27.70;;;;;;;;;;5048319;28;20199;-82
2022/02/26 14:07:37;;;;;;;37.50;25.40;;;;;;;;;;5048841;28;20189;-82
2022/02/26 14:10:06;;;;;;;17.97;13.03;;;;;;;;;;5048776;28;20217;-82
2022/02/26 14:12:34;;;;;;;18.17;13.07;;;;;;;;;;5048666;28;20205;-81
2022/02/26 14:15:04;;;;;;;13.97;11.43;;;;;;;;;;5048115;28;20260;-80
2022/02/26 14:17:31;;;;;;;7.17;6.00;;;;;;;;;;5048411;28;20202;-81
2022/02/26 14:20:00;;;;;;;7.77;7.00;;;;;;;;;;5048626;28;20679;-81
2022/02/26 14:22:29;;;;;;;9.43;8.50;;;;;;;;;;5048627;28;20201;-80
2022/02/26 14:24:57;;;;;;;23.67;19.27;;;;;;;;;;5048289;28;20202;-83
2022/02/26 14:27:26;;;;;;;18.87;13.83;;;;;;;;;;5048313;28;20210;-82
2022/02/26 14:30:03;;;;;;;11.33;10.00;;;;;;;;;;5032616;28;20241;-81
2022/02/26 14:32:35;;;;;;;10.17;6.97;;;;;;;;;;5028657;28;20190;-82
2022/02/26 14:35:05;;;;;;;11.33;8.73;;;;;;;;;;5028197;28;20242;-82
2022/02/26 14:37:32;;;;;;;10.87;8.57;;;;;;;;;;5028340;28;20199;-81
2022/02/26 14:40:00;;;;;;;8.40;5.67;;;;;;;;;;5027991;28;20195;-81
2022/02/26 14:42:27;;;;;;;8.27;6.67;;;;;;;;;;5028378;28;20202;-81
2022/02/26 14:44:54;;;;;;;8.50;6.97;;;;;;;;;;5030982;28;20195;-82